createdAt,value
2023-11-19T00:01:17.294Z,7.82
2023-11-19T00:03:45.266Z,7.89
2023-11-19T00:06:12.992Z,7.82
2023-11-19T00:08:40.736Z,7.87
2023-11-19T00:11:08.404Z,7.91
2023-11-19T00:13:37.498Z,7.73
2023-11-19T00:16:06.031Z,7.81
2023-11-19T00:18:33.966Z,7.75
2023-11-19T00:21:03.172Z,7.82
2023-11-19T00:23:30.835Z,7.72
2023-11-19T00:25:58.687Z,7.83
2023-11-19T00:28:26.438Z,7.72
2023-11-19T00:30:55.673Z,7.85
2023-11-19T00:33:23.295Z,7.86
2023-11-19T00:35:50.890Z,8.03
2023-11-19T00:38:18.572Z,7.90
2023-11-19T00:40:46.404Z,7.98
2023-11-19T00:43:14.345Z,8.16
2023-11-19T00:45:42.300Z,8.08
2023-11-19T00:48:11.896Z,8.16
2023-11-19T00:50:43.823Z,8.22
2023-11-19T00:53:11.761Z,8.41
2023-11-19T00:55:47.080Z,8.37
2023-11-19T00:58:15.201Z,8.45
2023-11-19T01:00:44.105Z,8.59
2023-11-19T01:03:13.763Z,8.30
2023-11-19T01:05:41.434Z,8.45
2023-11-19T01:08:09.205Z,8.41
2023-11-19T01:10:38.872Z,8.24
2023-11-19T01:13:06.927Z,8.08
2023-11-19T01:15:34.878Z,8.13
2023-11-19T01:18:03.132Z,8.36
2023-11-19T01:20:32.319Z,8.44
2023-11-19T01:22:59.926Z,8.19
2023-11-19T01:25:27.618Z,8.38
2023-11-19T01:27:55.288Z,8.23
2023-11-19T01:30:23.132Z,8.33
2023-11-19T01:32:50.720Z,8.17
2023-11-19T01:35:18.346Z,8.25
2023-11-19T01:37:47.262Z,8.52
2023-11-19T01:40:15.152Z,8.62
2023-11-19T01:42:43.203Z,8.59
2023-11-19T01:45:11.658Z,8.37
2023-11-19T01:47:39.874Z,8.32
2023-11-19T01:50:09.017Z,8.39
2023-11-19T01:52:37.538Z,8.27
2023-11-19T01:55:07.529Z,8.28
2023-11-19T01:57:35.423Z,8.32
2023-11-19T02:00:04.741Z,8.39
2023-11-19T02:02:32.667Z,8.50
2023-11-19T02:05:01.305Z,8.50
2023-11-19T02:07:29.346Z,8.46
2023-11-19T02:10:00.372Z,8.52
2023-11-19T02:12:30.293Z,8.49
2023-11-19T02:14:57.915Z,8.62
2023-11-19T02:17:29.296Z,8.63
2023-11-19T02:19:56.954Z,8.51
2023-11-19T02:22:24.603Z,8.50
2023-11-19T02:24:53.848Z,8.64
2023-11-19T02:27:40.695Z,8.58
2023-11-19T02:30:09.708Z,8.60
2023-11-19T02:32:41.868Z,8.51
2023-11-19T02:35:10.433Z,8.64
2023-11-19T02:37:39.053Z,8.59
2023-11-19T02:40:10.235Z,8.69
2023-11-19T02:42:38.073Z,8.62
2023-11-19T02:45:08.521Z,8.76
2023-11-19T02:47:37.028Z,8.75
2023-11-19T02:50:05.063Z,8.89
2023-11-19T02:52:36.146Z,9.02
2023-11-19T02:55:03.834Z,9.06
2023-11-19T02:57:33.623Z,9.15
2023-11-19T03:00:01.281Z,8.85
2023-11-19T03:02:34.985Z,8.97
2023-11-19T03:05:02.803Z,8.85
2023-11-19T03:07:30.463Z,8.90
2023-11-19T03:09:58.093Z,8.86
2023-11-19T03:12:25.733Z,8.95
2023-11-19T03:14:53.479Z,8.94
2023-11-19T03:17:21.018Z,8.99
2023-11-19T03:19:50.447Z,8.83
2023-11-19T03:22:18.555Z,8.92
2023-11-19T03:24:46.204Z,9.02
2023-11-19T03:27:15.443Z,9.01
2023-11-19T03:29:44.370Z,9.00
2023-11-19T03:32:13.291Z,9.11
2023-11-19T03:34:42.280Z,8.99
2023-11-19T03:37:11.286Z,9.16
2023-11-19T03:39:38.945Z,9.36
2023-11-19T03:42:06.845Z,9.37
2023-11-19T03:44:34.459Z,9.22
2023-11-19T03:47:02.107Z,9.31
2023-11-19T03:49:29.785Z,9.32
2023-11-19T03:51:57.475Z,9.42
2023-11-19T03:54:28.756Z,9.34
2023-11-19T03:56:56.402Z,9.44
2023-11-19T03:59:23.997Z,9.39
2023-11-19T04:01:52.384Z,9.33
2023-11-19T04:04:20.096Z,9.17
2023-11-19T04:06:47.719Z,9.21
2023-11-19T04:09:15.320Z,9.19
2023-11-19T04:11:44.214Z,9.27
2023-11-19T04:14:12.005Z,9.14
2023-11-19T04:16:39.704Z,9.22
2023-11-19T04:19:07.731Z,9.21
2023-11-19T04:21:35.727Z,9.23
2023-11-19T04:24:03.311Z,9.12
2023-11-19T04:26:32.258Z,9.16
2023-11-19T04:29:01.346Z,9.16
2023-11-19T04:31:32.515Z,9.23
2023-11-19T04:34:01.494Z,9.15
2023-11-19T04:36:30.668Z,9.11
2023-11-19T04:38:58.283Z,9.12
2023-11-19T04:41:26.019Z,9.15
2023-11-19T04:43:53.668Z,9.05
2023-11-19T04:46:22.817Z,9.13
2023-11-19T04:48:50.524Z,9.13
2023-11-19T04:51:18.134Z,9.15
2023-11-19T04:53:45.685Z,9.06
2023-11-19T04:56:14.516Z,9.14
2023-11-19T04:58:42.163Z,9.27
2023-11-19T05:01:16.124Z,9.31
2023-11-19T05:03:46.574Z,9.20
2023-11-19T05:06:14.262Z,9.33
2023-11-19T05:08:41.907Z,9.34
2023-11-19T05:11:13.057Z,9.34
2023-11-19T05:13:40.745Z,9.45
2023-11-19T05:16:10.914Z,9.60
2023-11-19T05:18:40.660Z,9.52
2023-11-19T05:21:11.133Z,9.54
2023-11-19T05:23:38.817Z,9.68
2023-11-19T05:26:08.761Z,9.76
2023-11-19T05:28:36.725Z,9.83
2023-11-19T05:31:04.569Z,9.87
2023-11-19T05:33:32.324Z,9.88
2023-11-19T05:35:59.977Z,9.89
2023-11-19T05:38:30.045Z,9.84
2023-11-19T05:40:58.124Z,9.85
2023-11-19T05:43:25.826Z,10.00
2023-11-19T05:45:53.475Z,9.74
2023-11-19T05:48:21.182Z,9.88
2023-11-19T05:50:50.319Z,9.79
2023-11-19T05:53:18.148Z,9.79
2023-11-19T05:55:50.839Z,9.84
2023-11-19T05:58:18.463Z,9.71
2023-11-19T06:00:46.526Z,9.73
2023-11-19T06:03:14.724Z,9.73
2023-11-19T06:05:42.512Z,9.85
2023-11-19T06:08:10.110Z,9.94
2023-11-19T06:10:37.780Z,10.00
2023-11-19T06:13:06.772Z,10.06
2023-11-19T06:15:35.265Z,10.04
2023-11-19T06:18:04.427Z,9.90
2023-11-19T06:20:43.398Z,10.00
2023-11-19T06:23:11.616Z,10.00
2023-11-19T06:25:39.510Z,9.67
2023-11-19T06:28:08.772Z,9.78
2023-11-19T06:30:37.321Z,9.97
2023-11-19T06:33:05.698Z,9.93
2023-11-19T06:35:37.324Z,9.99
2023-11-19T06:38:05.977Z,9.91
2023-11-19T06:40:33.752Z,9.95
2023-11-19T06:43:01.908Z,10.10
2023-11-19T06:45:31.146Z,10.25
2023-11-19T06:47:59.756Z,10.05
2023-11-19T06:50:27.377Z,9.96
2023-11-19T06:52:55.009Z,9.97
2023-11-19T06:55:22.631Z,10.11
2023-11-19T06:57:50.284Z,10.22
2023-11-19T07:00:19.249Z,10.06
2023-11-19T07:02:48.428Z,10.08
2023-11-19T07:05:16.182Z,10.16
2023-11-19T07:07:44.389Z,10.12
2023-11-19T07:10:12.607Z,10.27
2023-11-19T07:12:40.403Z,10.21
2023-11-19T07:15:08.885Z,10.17
2023-11-19T07:17:37.550Z,10.05
2023-11-19T07:20:08.569Z,10.15
2023-11-19T07:22:36.229Z,10.14
2023-11-19T07:25:04.203Z,10.11
2023-11-19T07:27:31.834Z,10.21
2023-11-19T07:29:59.578Z,10.03
2023-11-19T07:32:27.341Z,10.24
2023-11-19T07:34:54.972Z,10.70
2023-11-19T07:37:23.961Z,10.94
2023-11-19T07:39:51.681Z,11.26
2023-11-19T07:42:19.309Z,11.61
2023-11-19T07:44:47.204Z,11.85
2023-11-19T07:47:14.897Z,12.00
2023-11-19T07:49:45.688Z,12.34
2023-11-19T07:54:45.500Z,12.26
2023-11-19T07:57:13.320Z,12.23
2023-11-19T07:59:41.099Z,12.57
2023-11-19T08:02:08.846Z,12.38
2023-11-19T08:04:36.617Z,12.32
2023-11-19T08:07:04.509Z,12.63
2023-11-19T08:09:32.938Z,12.57
2023-11-19T08:12:01.989Z,12.62
2023-11-19T08:14:29.705Z,12.71
2023-11-19T08:16:58.096Z,12.46
2023-11-19T08:19:25.836Z,12.27
2023-11-19T08:21:53.796Z,12.33
2023-11-19T08:24:21.692Z,12.10
2023-11-19T08:27:02.894Z,12.29
2023-11-19T08:29:32.567Z,12.33
2023-11-19T08:32:03.595Z,13.01
2023-11-19T08:34:31.659Z,12.90
2023-11-19T08:36:59.454Z,12.32
2023-11-19T08:39:27.226Z,12.40
2023-11-19T08:41:56.730Z,12.13
2023-11-19T08:44:24.398Z,11.94
2023-11-19T08:46:53.892Z,12.06
2023-11-19T08:49:21.670Z,12.11
2023-11-19T08:51:49.645Z,12.30
2023-11-19T08:54:17.537Z,12.25
2023-11-19T08:56:45.402Z,12.48
2023-11-19T08:59:13.470Z,12.82
2023-11-19T09:01:42.304Z,12.87
2023-11-19T09:04:12.032Z,12.97
2023-11-19T09:06:39.802Z,13.05
2023-11-19T09:09:07.492Z,13.36
2023-11-19T09:11:35.324Z,13.37
2023-11-19T09:14:03.506Z,13.18
2023-11-19T09:16:31.616Z,13.62
2023-11-19T09:19:00.409Z,13.49
2023-11-19T09:21:30.621Z,13.52
2023-11-19T09:23:58.336Z,13.50
2023-11-19T09:26:26.213Z,13.71
2023-11-19T09:28:54.006Z,13.78
2023-11-19T09:31:21.804Z,14.29
2023-11-19T09:33:49.523Z,14.20
2023-11-19T09:36:17.905Z,13.92
2023-11-19T09:38:47.251Z,14.15
2023-11-19T09:41:15.441Z,14.03
2023-11-19T09:43:43.605Z,13.56
2023-11-19T09:46:12.661Z,14.15
2023-11-19T09:48:41.201Z,14.37
2023-11-19T09:51:09.632Z,14.40
2023-11-19T09:53:37.553Z,14.48
2023-11-19T09:56:08.985Z,14.25
2023-11-19T09:58:37.154Z,14.19
2023-11-19T10:03:41.042Z,14.73
2023-11-19T10:06:09.567Z,14.65
2023-11-19T10:08:39.981Z,14.56
2023-11-19T10:11:09.402Z,14.62
2023-11-19T10:13:38.958Z,14.30
2023-11-19T10:16:10.505Z,14.11
2023-11-19T10:18:40.970Z,13.78
2023-11-19T10:21:09.065Z,13.45
2023-11-19T10:23:51.187Z,12.98
2023-11-19T10:26:20.978Z,12.88
2023-11-19T10:28:49.551Z,12.62
2023-11-19T10:31:18.030Z,12.75
2023-11-19T10:33:46.571Z,13.35
2023-11-19T10:36:14.731Z,13.87
2023-11-19T10:38:42.132Z,14.17
2023-11-19T10:41:09.876Z,14.41
2023-11-19T10:43:48.611Z,13.64
2023-11-19T10:46:22.095Z,13.64
2023-11-19T10:48:50.187Z,14.04
2023-11-19T10:51:22.703Z,13.89
2023-11-19T10:53:52.150Z,14.40
2023-11-19T10:56:22.836Z,14.40
2023-11-19T10:58:53.830Z,13.62
2023-11-19T11:01:22.910Z,13.63
2023-11-19T11:03:54.516Z,13.47
2023-11-19T11:06:23.447Z,13.17
2023-11-19T11:08:51.156Z,13.38
2023-11-19T11:11:22.103Z,14.18
2023-11-19T11:13:52.273Z,14.08
2023-11-19T11:16:21.144Z,13.73
2023-11-19T11:18:51.039Z,13.26
2023-11-19T11:21:21.701Z,13.12
2023-11-19T11:24:08.442Z,13.05
2023-11-19T11:26:50.297Z,13.10
2023-11-19T11:29:26.639Z,12.85
2023-11-19T11:32:04.108Z,12.89
2023-11-19T11:34:56.329Z,13.08
2023-11-19T11:37:28.502Z,13.91
2023-11-19T11:39:56.395Z,14.34
2023-11-19T11:42:37.145Z,14.70
2023-11-19T11:45:09.966Z,14.64
2023-11-19T11:48:15.482Z,14.96
2023-11-19T11:50:50.205Z,15.52
2023-11-19T11:53:19.809Z,15.76
2023-11-19T11:55:59.874Z,15.71
2023-11-19T11:58:28.706Z,15.95
2023-11-19T12:00:59.721Z,15.34
2023-11-19T12:03:29.553Z,15.59
2023-11-19T12:05:57.244Z,15.82
2023-11-19T12:08:28.188Z,16.18
2023-11-19T12:10:58.994Z,16.30
2023-11-19T12:13:28.591Z,16.75
2023-11-19T12:16:13.782Z,16.34
2023-11-19T12:18:43.335Z,16.91
2023-11-19T12:21:14.180Z,17.08
2023-11-19T12:23:49.317Z,16.19
2023-11-19T12:26:36.173Z,15.76
2023-11-19T12:29:08.920Z,16.11
2023-11-19T12:31:39.421Z,15.68
2023-11-19T12:34:09.138Z,15.73
2023-11-19T12:36:37.004Z,16.27
2023-11-19T12:39:06.812Z,16.69
2023-11-19T12:41:36.099Z,17.42
2023-11-19T12:44:13.719Z,16.89
2023-11-19T12:46:42.899Z,16.65
2023-11-19T12:49:13.530Z,16.09
2023-11-19T12:51:41.180Z,16.12
2023-11-19T12:54:08.956Z,16.30
2023-11-19T12:56:37.636Z,16.22
2023-11-19T12:59:14.626Z,14.81
2023-11-19T13:01:46.584Z,14.76
2023-11-19T13:04:20.734Z,13.76
2023-11-19T13:07:05.055Z,14.66
2023-11-19T13:09:33.689Z,14.82
2023-11-19T13:12:04.734Z,16.04
2023-11-19T13:14:38.626Z,16.34
2023-11-19T13:17:08.117Z,16.54
2023-11-19T13:19:35.859Z,16.50
2023-11-19T13:22:03.799Z,16.46
2023-11-19T13:24:31.644Z,16.24
2023-11-19T13:26:59.588Z,16.67
2023-11-19T13:29:28.882Z,17.09
2023-11-19T13:31:58.018Z,16.72
2023-11-19T13:34:26.972Z,16.75
2023-11-19T13:36:54.572Z,16.93
2023-11-19T13:39:24.797Z,17.82
2023-11-19T13:41:52.369Z,17.29
2023-11-19T13:44:21.804Z,16.86
2023-11-19T13:46:49.420Z,17.27
2023-11-19T13:49:17.239Z,17.37
2023-11-19T13:51:46.653Z,17.39
2023-11-19T13:54:15.506Z,16.67
2023-11-19T13:56:45.651Z,16.71
2023-11-19T13:59:13.331Z,17.14
2023-11-19T14:01:40.935Z,16.41
2023-11-19T14:04:10.217Z,16.42
2023-11-19T14:06:37.925Z,15.45
2023-11-19T14:09:09.037Z,14.54
2023-11-19T14:11:36.666Z,13.71
2023-11-19T14:14:04.501Z,13.28
2023-11-19T14:16:33.481Z,13.27
2023-11-19T14:19:01.192Z,13.24
2023-11-19T14:21:28.843Z,13.06
2023-11-19T14:23:56.934Z,13.09
2023-11-19T14:26:25.826Z,13.00
2023-11-19T14:28:56.448Z,12.91
2023-11-19T14:31:24.267Z,13.51
2023-11-19T14:33:51.861Z,13.74
2023-11-19T14:36:19.923Z,13.24
2023-11-19T14:38:47.430Z,13.12
2023-11-19T14:41:15.078Z,13.16
2023-11-19T14:43:43.991Z,12.86
2023-11-19T14:46:11.631Z,13.57
2023-11-19T14:48:39.238Z,13.75
2023-11-19T14:51:08.037Z,13.57
2023-11-19T14:53:35.628Z,13.08
2023-11-19T14:56:03.450Z,12.92
2023-11-19T14:58:31.111Z,12.81
2023-11-19T15:01:00.214Z,12.90
2023-11-19T15:03:28.093Z,12.79
2023-11-19T15:05:55.799Z,12.60
2023-11-19T15:08:23.364Z,12.49
2023-11-19T15:10:51.166Z,12.77
2023-11-19T15:13:18.754Z,12.80
2023-11-19T15:15:46.458Z,12.33
2023-11-19T15:18:15.478Z,12.30
2023-11-19T15:20:43.091Z,12.23
2023-11-19T15:23:11.027Z,12.25
2023-11-19T15:25:38.815Z,12.10
2023-11-19T15:28:06.440Z,12.22
2023-11-19T15:30:34.048Z,12.18
2023-11-19T15:33:01.664Z,12.00
2023-11-19T15:35:30.605Z,11.91
2023-11-19T15:37:58.228Z,11.94
2023-11-19T15:40:25.920Z,11.83
2023-11-19T15:42:55.899Z,11.78
2023-11-19T15:45:23.510Z,11.83
2023-11-19T15:47:51.533Z,11.68
2023-11-19T15:50:19.158Z,11.85
2023-11-19T15:52:48.960Z,11.60
2023-11-19T15:55:17.046Z,11.68
2023-11-19T15:57:44.677Z,11.72
2023-11-19T16:00:12.985Z,11.65
2023-11-19T16:02:40.851Z,11.68
2023-11-19T16:05:12.032Z,11.57
2023-11-19T16:07:41.475Z,11.56
2023-11-19T16:10:14.230Z,11.49
2023-11-19T16:12:42.418Z,11.43
2023-11-19T16:15:11.013Z,11.47
2023-11-19T16:17:41.014Z,11.51
2023-11-19T16:20:12.791Z,11.56
2023-11-19T16:22:40.490Z,11.43
2023-11-19T16:25:10.529Z,11.33
2023-11-19T16:27:40.549Z,11.40
2023-11-19T16:30:09.294Z,11.41
2023-11-19T16:32:49.900Z,11.33
2023-11-19T16:35:17.634Z,11.27
2023-11-19T16:37:45.979Z,11.31
2023-11-19T16:40:15.566Z,11.45
2023-11-19T16:42:43.568Z,11.54
2023-11-19T16:45:11.427Z,11.61
2023-11-19T16:47:39.169Z,11.69
2023-11-19T16:50:08.908Z,11.84
2023-11-19T16:52:36.510Z,11.80
2023-11-19T16:55:07.290Z,11.84
2023-11-19T16:57:36.865Z,11.94
2023-11-19T17:00:05.432Z,11.80
2023-11-19T17:02:50.969Z,11.78
2023-11-19T17:05:19.343Z,11.57
2023-11-19T17:07:49.239Z,11.58
2023-11-19T17:10:17.519Z,11.42
2023-11-19T17:12:46.436Z,11.70
2023-11-19T17:15:14.236Z,11.33
2023-11-19T17:17:41.859Z,11.35
2023-11-19T17:20:10.914Z,11.44
2023-11-19T17:22:41.544Z,11.24
2023-11-19T17:25:10.819Z,11.48
2023-11-19T17:27:40.152Z,11.48
2023-11-19T17:30:12.140Z,11.27
2023-11-19T17:32:39.762Z,11.19
2023-11-19T17:35:08.199Z,11.18
2023-11-19T17:37:35.842Z,11.18
2023-11-19T17:40:03.487Z,11.10
2023-11-19T17:42:31.191Z,10.96
2023-11-19T17:44:59.783Z,11.10
2023-11-19T17:47:29.489Z,11.00
2023-11-19T17:49:57.103Z,11.15
2023-11-19T17:52:25.092Z,10.88
2023-11-19T17:54:52.729Z,10.96
2023-11-19T17:57:20.333Z,11.07
2023-11-19T17:59:50.683Z,10.99
2023-11-19T18:02:19.634Z,10.73
2023-11-19T18:04:49.247Z,11.00
2023-11-19T18:07:17.792Z,10.90
2023-11-19T18:09:46.086Z,10.88
2023-11-19T18:12:16.649Z,10.93
2023-11-19T18:17:15.248Z,11.03
2023-11-19T18:19:42.843Z,10.73
2023-11-19T18:22:12.010Z,10.95
2023-11-19T18:24:39.750Z,10.80
2023-11-19T18:27:08.571Z,10.61
2023-11-19T18:29:36.487Z,10.64
2023-11-19T18:32:05.315Z,10.66
2023-11-19T18:34:32.952Z,10.73
2023-11-19T18:37:00.991Z,10.74
2023-11-19T18:39:29.901Z,10.51
2023-11-19T18:41:57.610Z,10.78
2023-11-19T18:44:25.259Z,10.74
2023-11-19T18:46:52.865Z,10.81
2023-11-19T18:49:20.492Z,10.60
2023-11-19T18:51:48.095Z,10.65
2023-11-19T18:54:17.401Z,10.64
2023-11-19T18:56:46.384Z,10.57
2023-11-19T18:59:14.752Z,10.72
2023-11-19T19:01:44.702Z,10.68
2023-11-19T19:04:12.546Z,10.72
2023-11-19T19:06:42.009Z,10.72
2023-11-19T19:09:09.636Z,10.56
2023-11-19T19:11:37.307Z,10.59
2023-11-19T19:14:08.404Z,10.72
2023-11-19T19:16:38.094Z,10.70
2023-11-19T19:19:05.932Z,10.60
2023-11-19T19:21:33.509Z,10.75
2023-11-19T19:24:04.262Z,10.82
2023-11-19T19:26:32.067Z,10.90
2023-11-19T19:28:59.725Z,10.78
2023-11-19T19:31:29.355Z,10.74
2023-11-19T19:33:59.015Z,10.81
2023-11-19T19:36:29.011Z,10.82
2023-11-19T19:38:56.793Z,10.71
2023-11-19T19:41:25.601Z,10.66
2023-11-19T19:43:53.319Z,10.80
2023-11-19T19:46:20.953Z,10.75
2023-11-19T19:48:51.881Z,10.79
2023-11-19T19:51:21.130Z,10.93
2023-11-19T19:53:49.031Z,10.89
2023-11-19T19:56:17.141Z,10.81
2023-11-19T19:58:44.936Z,10.82
2023-11-19T20:01:12.538Z,10.85
2023-11-19T20:03:40.309Z,11.06
2023-11-19T20:06:12.486Z,11.01
2023-11-19T20:08:40.780Z,10.97
2023-11-19T20:11:09.778Z,11.00
2023-11-19T20:13:38.027Z,11.10
2023-11-19T20:16:06.598Z,10.99
2023-11-19T20:18:34.849Z,11.09
2023-11-19T20:21:04.902Z,10.99
2023-11-19T20:23:33.914Z,11.02
2023-11-19T20:26:01.605Z,10.98
2023-11-19T20:28:29.156Z,11.04
2023-11-19T20:30:56.763Z,10.97
2023-11-19T20:33:24.373Z,11.03
2023-11-19T20:35:52.599Z,10.99
2023-11-19T20:38:20.584Z,10.99
2023-11-19T20:40:50.720Z,11.09
2023-11-19T20:43:18.357Z,11.01
2023-11-19T20:45:46.003Z,11.10
2023-11-19T20:48:13.831Z,11.04
2023-11-19T20:50:41.989Z,11.02
2023-11-19T20:53:09.788Z,11.02
2023-11-19T20:55:39.441Z,11.18
2023-11-19T20:58:10.624Z,11.13
2023-11-19T21:00:40.095Z,11.13
2023-11-19T21:03:10.897Z,11.05
2023-11-19T21:05:40.086Z,11.01
2023-11-19T21:08:07.761Z,10.96
2023-11-19T21:10:35.366Z,11.00
2023-11-19T21:13:03.054Z,11.00
2023-11-19T21:15:32.099Z,10.94
2023-11-19T21:18:01.880Z,11.15
2023-11-19T21:20:29.499Z,11.27
2023-11-19T21:22:57.098Z,11.23
2023-11-19T21:25:24.800Z,11.28
2023-11-19T21:27:52.487Z,11.10
2023-11-19T21:30:20.052Z,11.03
2023-11-19T21:32:49.002Z,11.11
2023-11-19T21:35:16.725Z,11.12
2023-11-19T21:37:44.288Z,11.02
2023-11-19T21:40:12.673Z,10.92
2023-11-19T21:42:40.259Z,11.06
2023-11-19T21:45:09.508Z,11.07
2023-11-19T21:47:37.153Z,11.15
2023-11-19T21:50:08.227Z,11.26
2023-11-19T21:52:36.372Z,11.28
2023-11-19T21:55:04.314Z,11.21
2023-11-19T21:57:31.921Z,11.34
2023-11-19T21:59:59.532Z,11.23
2023-11-19T22:02:27.192Z,11.21
2023-11-19T22:04:54.838Z,11.20
2023-11-19T22:07:24.498Z,11.16
2023-11-19T22:09:52.767Z,11.44
2023-11-19T22:12:21.712Z,11.18
2023-11-19T22:14:49.291Z,11.16
2023-11-19T22:17:17.263Z,11.20
2023-11-19T22:19:47.187Z,11.37
2023-11-19T22:22:17.701Z,11.39
2023-11-19T22:24:46.667Z,11.41
2023-11-19T22:27:14.292Z,11.17
2023-11-19T22:29:41.869Z,11.15
2023-11-19T22:32:09.467Z,11.20
2023-11-19T22:34:37.083Z,11.13
2023-11-19T22:37:04.982Z,11.22
2023-11-19T22:39:32.557Z,11.18
2023-11-19T22:42:01.520Z,11.23
2023-11-19T22:44:29.327Z,11.17
2023-11-19T22:46:57.053Z,11.17
2023-11-19T22:49:24.667Z,11.31
2023-11-19T22:51:52.269Z,11.25
2023-11-19T22:54:19.941Z,11.26
2023-11-19T22:56:47.516Z,11.18
2023-11-19T22:59:17.056Z,11.05
2023-11-19T23:01:46.111Z,11.14
2023-11-19T23:04:14.513Z,11.04
2023-11-19T23:06:42.523Z,11.09
2023-11-19T23:09:14.406Z,11.01
2023-11-19T23:12:08.727Z,11.01
2023-11-19T23:14:38.276Z,11.08
2023-11-19T23:17:20.231Z,11.02
2023-11-19T23:19:49.099Z,10.96
2023-11-19T23:24:48.975Z,10.79
2023-11-19T23:27:19.413Z,10.70
2023-11-19T23:29:48.360Z,10.77
2023-11-19T23:32:16.385Z,11.01
2023-11-19T23:34:44.600Z,10.92
2023-11-19T23:37:23.052Z,10.86
2023-11-19T23:39:51.049Z,11.05
2023-11-19T23:42:25.470Z,11.02
2023-11-19T23:44:54.836Z,11.00
2023-11-19T23:47:22.906Z,11.02
2023-11-19T23:49:50.724Z,11.05
2023-11-19T23:52:18.985Z,11.11
2023-11-19T23:54:47.106Z,10.97
2023-11-19T23:57:15.886Z,10.98
2023-11-19T23:59:48.368Z,10.99
